Pilot Magazine UKGA

About You

Log In Register UKGA membership

Flight planning

Flight planning New flightplan NOTAM map LARS map & NOTAMs Danger area, mil. & TRA activations Weather map GPS route download Find waypoints Your waypoints New waypoint

Forums

Forums Currently discussing "Are you still in business for a/c share sales?"

History

Roserrow weather

Other items

Articles Events Links News Surveys Tips Other users Feedback UKGA membership About UKGA

Roserrow weather

(Weather from Newquay)

NOT FOR OPERATIONAL USE

TAF

TAF EGHQ 020158Z 0203/0212 10009KT 9999 FEW025= TAF EGNJ 020156Z 0203/0212 21003KT 0500 FG FEW003 
      TEMPO 0203/0206 0100 VV/// 
      BECMG 0206/0209 3000 BR 
      BECMG 0209/0212 9999 NSW

Previous TAFs

Log in to see Previous TAFs.

METAR

EGHQ 020320Z AUTO 10010KT 9999 NCD 06/04 Q1025
Our last available update is from 02 December, 03:20 UTC. The data for this report was generated by an automatic station. There is an Easterly wind of 10 knots . Current visibility is 10 km or more. The temperature is 6°C. The dewpoint is 4°C. The QNH is 1025mb.

Previous METARs

Log in to see previous METARs.

Contribute to UKGA:

Do you have more up-to-date information about Roserrow?

Roserrow photos

Do you have any photos taken at or near Roserrow?
Why not share them with other UKGA users?
28 Sep 18
15 Mar 07
15 Mar 07

Register with UKGA

Registration is quick and easy, and FREE!

Registered users received the following benefits:

  • Remembers "Favourites" Aerodromes
  • Automatic email of new Notams (if desired)
  • Automatic email of relevant events
  • Log Book
  • ... and more!

Click here to register NOW

About You

Log In Register UKGA membership

Airfields

Interactive airfield map Search by name Search by postcode Search by location Fuel prices Pilot reviews Latest
(No favourites selected)

Flight planning

Flight planning New flightplan NOTAM map LARS map & NOTAMs Danger area, mil. & TRA activations Weather map GPS route download Find waypoints Your waypoints New waypoint

Forums

Forums Currently discussing "Are you still in business for a/c share sales?"

History

Roserrow weather

Other items

Articles Events Links News Surveys Tips Other users Feedback UKGA membership About UKGA